sensor_id;sensor_type;location;lat;lon;timestamp;temperature;humidity
13123;DHT22;6627;50.920;12.050;2022-11-20T06:06:19;-6.80;99.90
13123;DHT22;6627;50.920;12.050;2022-11-20T06:08:47;-6.70;99.90
13123;DHT22;6627;50.920;12.050;2022-11-20T06:11:16;-6.60;99.90
13123;DHT22;6627;50.920;12.050;2022-11-20T06:13:44;-6.50;99.90
13123;DHT22;6627;50.920;12.050;2022-11-20T06:16:14;-6.50;99.90
13123;DHT22;6627;50.920;12.050;2022-11-20T06:18:43;-6.40;99.90
13123;DHT22;6627;50.920;12.050;2022-11-20T06:21:12;-6.70;99.90
13123;DHT22;6627;50.920;12.050;2022-11-20T06:23:42;-6.50;99.90
13123;DHT22;6627;50.920;12.050;2022-11-20T06:26:12;-6.50;99.90
13123;DHT22;6627;50.920;12.050;2022-11-20T06:28:42;-6.70;99.90
13123;DHT22;6627;50.920;12.050;2022-11-20T06:31:12;-6.60;99.90
13123;DHT22;6627;50.920;12.050;2022-11-20T06:33:41;-6.60;99.90
13123;DHT22;6627;50.920;12.050;2022-11-20T06:36:10;-6.70;99.90
13123;DHT22;6627;50.920;12.050;2022-11-20T06:38:39;-6.70;99.90
13123;DHT22;6627;50.920;12.050;2022-11-20T06:41:11;-6.60;99.90
13123;DHT22;6627;50.920;12.050;2022-11-20T06:43:40;-7.10;99.90
13123;DHT22;6627;50.920;12.050;2022-11-20T06:46:08;-6.90;99.90
13123;DHT22;6627;50.920;12.050;2022-11-20T06:48:37;-6.80;99.90
13123;DHT22;6627;50.920;12.050;2022-11-20T06:51:05;-6.90;99.90
13123;DHT22;6627;50.920;12.050;2022-11-20T06:53:34;-6.70;99.90
13123;DHT22;6627;50.920;12.050;2022-11-20T06:56:03;-6.60;99.90
13123;DHT22;6627;50.920;12.050;2022-11-20T06:58:33;-6.70;99.90
13123;DHT22;6627;50.920;12.050;2022-11-20T07:01:03;-6.60;99.90
13123;DHT22;6627;50.920;12.050;2022-11-20T07:03:33;-6.50;99.90
13123;DHT22;6627;50.920;12.050;2022-11-20T07:06:01;-6.80;99.90
13123;DHT22;6627;50.920;12.050;2022-11-20T07:08:29;-6.50;99.90
13123;DHT22;6627;50.920;12.050;2022-11-20T07:10:57;-6.40;99.90
13123;DHT22;6627;50.920;12.050;2022-11-20T07:13:32;-6.30;99.90
13123;DHT22;6627;50.920;12.050;2022-11-20T07:16:00;-6.30;99.90
13123;DHT22;6627;50.920;12.050;2022-11-20T07:18:29;-6.40;99.90
13123;DHT22;6627;50.920;12.050;2022-11-20T07:20:59;-6.40;99.90
13123;DHT22;6627;50.920;12.050;2022-11-20T07:23:27;-6.30;99.90
13123;DHT22;6627;50.920;12.050;2022-11-20T07:25:54;-6.30;99.90
13123;DHT22;6627;50.920;12.050;2022-11-20T07:28:21;-6.20;99.90
13123;DHT22;6627;50.920;12.050;2022-11-20T07:30:53;-6.20;99.90
13123;DHT22;6627;50.920;12.050;2022-11-20T07:33:21;-6.20;99.90
13123;DHT22;6627;50.920;12.050;2022-11-20T07:35:48;-6.20;99.90
13123;DHT22;6627;50.920;12.050;2022-11-20T07:38:15;-6.00;99.90
13123;DHT22;6627;50.920;12.050;2022-11-20T07:40:43;-6.00;99.90
13123;DHT22;6627;50.920;12.050;2022-11-20T07:43:10;-5.90;99.90
13123;DHT22;6627;50.920;12.050;2022-11-20T07:45:38;-5.70;99.90
13123;DHT22;6627;50.920;12.050;2022-11-20T07:48:07;-5.70;99.90
13123;DHT22;6627;50.920;12.050;2022-11-20T07:50:34;-5.70;99.90
13123;DHT22;6627;50.920;12.050;2022-11-20T07:53:02;-5.60;99.90
13123;DHT22;6627;50.920;12.050;2022-11-20T07:55:30;-5.60;99.90
13123;DHT22;6627;50.920;12.050;2022-11-20T07:57:59;-5.70;99.90
13123;DHT22;6627;50.920;12.050;2022-11-20T08:00:26;-5.60;99.90
13123;DHT22;6627;50.920;12.050;2022-11-20T08:02:54;-5.40;99.90
13123;DHT22;6627;50.920;12.050;2022-11-20T08:05:23;-5.40;99.90
13123;DHT22;6627;50.920;12.050;2022-11-20T08:07:50;-5.30;99.90
13123;DHT22;6627;50.920;12.050;2022-11-20T08:10:18;-5.20;99.90
13123;DHT22;6627;50.920;12.050;2022-11-20T08:12:46;-5.20;99.90
13123;DHT22;6627;50.920;12.050;2022-11-20T08:15:41;-5.20;99.90
13123;DHT22;6627;50.920;12.050;2022-11-20T08:18:09;-5.10;99.90
13123;DHT22;6627;50.920;12.050;2022-11-20T08:20:39;-5.10;99.90
13123;DHT22;6627;50.920;12.050;2022-11-20T08:23:07;-5.10;99.90
13123;DHT22;6627;50.920;12.050;2022-11-20T08:25:36;-4.90;99.90
13123;DHT22;6627;50.920;12.050;2022-11-20T08:28:05;-4.80;99.90
13123;DHT22;6627;50.920;12.050;2022-11-20T08:30:36;-4.80;99.90
13123;DHT22;6627;50.920;12.050;2022-11-20T08:33:05;-4.70;99.90
13123;DHT22;6627;50.920;12.050;2022-11-20T08:35:34;-4.70;99.90
13123;DHT22;6627;50.920;12.050;2022-11-20T08:38:04;-4.60;99.90
13123;DHT22;6627;50.920;12.050;2022-11-20T08:40:32;-4.40;99.90
13123;DHT22;6627;50.920;12.050;2022-11-20T08:43:00;-4.30;99.90
13123;DHT22;6627;50.920;12.050;2022-11-20T08:45:27;-4.20;99.90
13123;DHT22;6627;50.920;12.050;2022-11-20T08:47:59;-4.00;99.90
13123;DHT22;6627;50.920;12.050;2022-11-20T08:50:27;-4.00;99.90
13123;DHT22;6627;50.920;12.050;2022-11-20T08:53:03;-4.00;99.90
13123;DHT22;6627;50.920;12.050;2022-11-20T08:55:31;-3.80;99.90
13123;DHT22;6627;50.920;12.050;2022-11-20T08:58:03;-3.70;99.90
13123;DHT22;6627;50.920;12.050;2022-11-20T09:00:30;-3.70;99.90
13123;DHT22;6627;50.920;12.050;2022-11-20T09:02:58;-3.60;99.90
13123;DHT22;6627;50.920;12.050;2022-11-20T09:05:27;-3.50;99.90
13123;DHT22;6627;50.920;12.050;2022-11-20T09:07:56;-3.30;99.90
13123;DHT22;6627;50.920;12.050;2022-11-20T09:10:24;-3.10;99.90
13123;DHT22;6627;50.920;12.050;2022-11-20T09:12:52;-3.10;99.90
13123;DHT22;6627;50.920;12.050;2022-11-20T09:15:21;-3.10;99.90
13123;DHT22;6627;50.920;12.050;2022-11-20T09:20:21;-2.90;99.90
13123;DHT22;6627;50.920;12.050;2022-11-20T09:22:48;-2.90;99.90
13123;DHT22;6627;50.920;12.050;2022-11-20T09:25:16;-2.80;99.90
13123;DHT22;6627;50.920;12.050;2022-11-20T09:27:45;-2.70;99.90
13123;DHT22;6627;50.920;12.050;2022-11-20T09:30:13;-2.70;99.90
13123;DHT22;6627;50.920;12.050;2022-11-20T09:32:42;-2.40;99.90
13123;DHT22;6627;50.920;12.050;2022-11-20T09:35:10;-2.40;99.90
13123;DHT22;6627;50.920;12.050;2022-11-20T09:37:37;-2.40;99.90
13123;DHT22;6627;50.920;12.050;2022-11-20T09:40:06;-2.30;99.90
13123;DHT22;6627;50.920;12.050;2022-11-20T09:42:47;-2.30;99.90
13123;DHT22;6627;50.920;12.050;2022-11-20T09:45:23;-2.20;99.90
13123;DHT22;6627;50.920;12.050;2022-11-20T09:48:16;-2.10;99.90
13123;DHT22;6627;50.920;12.050;2022-11-20T09:50:55;-2.00;99.90
13123;DHT22;6627;50.920;12.050;2022-11-20T09:56:12;-1.80;99.90
13123;DHT22;6627;50.920;12.050;2022-11-20T09:58:45;-1.90;99.90
13123;DHT22;6627;50.920;12.050;2022-11-20T10:01:17;-1.80;99.90
13123;DHT22;6627;50.920;12.050;2022-11-20T10:03:55;-1.70;99.90
13123;DHT22;6627;50.920;12.050;2022-11-20T10:06:30;-1.70;99.90
13123;DHT22;6627;50.920;12.050;2022-11-20T10:09:17;-1.70;99.90
13123;DHT22;6627;50.920;12.050;2022-11-20T10:11:59;-1.60;99.90
13123;DHT22;6627;50.920;12.050;2022-11-20T10:14:53;-1.50;99.90
13123;DHT22;6627;50.920;12.050;2022-11-20T10:17:41;-1.40;99.90
13123;DHT22;6627;50.920;12.050;2022-11-20T10:20:28;-1.30;99.90
13123;DHT22;6627;50.920;12.050;2022-11-20T10:23:29;-1.20;99.90
13123;DHT22;6627;50.920;12.050;2022-11-20T10:26:21;-1.20;99.90
13123;DHT22;6627;50.920;12.050;2022-11-20T10:29:00;-1.20;99.90
13123;DHT22;6627;50.920;12.050;2022-11-20T10:31:40;-1.20;99.90
13123;DHT22;6627;50.920;12.050;2022-11-20T10:34:19;-1.20;99.90
13123;DHT22;6627;50.920;12.050;2022-11-20T10:36:58;-1.10;99.90
13123;DHT22;6627;50.920;12.050;2022-11-20T10:39:35;-1.10;99.90
13123;DHT22;6627;50.920;12.050;2022-11-20T10:42:11;-1.00;99.90
13123;DHT22;6627;50.920;12.050;2022-11-20T10:44:49;-1.00;99.90
13123;DHT22;6627;50.920;12.050;2022-11-20T10:47:30;-1.00;99.90
13123;DHT22;6627;50.920;12.050;2022-11-20T10:50:03;-0.90;99.90
13123;DHT22;6627;50.920;12.050;2022-11-20T10:52:38;-0.80;99.90
13123;DHT22;6627;50.920;12.050;2022-11-20T10:55:26;-0.80;99.90
13123;DHT22;6627;50.920;12.050;2022-11-20T10:58:04;-0.80;99.90
13123;DHT22;6627;50.920;12.050;2022-11-20T11:00:40;-0.80;99.90
13123;DHT22;6627;50.920;12.050;2022-11-20T11:03:22;-0.70;99.90
13123;DHT22;6627;50.920;12.050;2022-11-20T11:05:56;-0.60;99.90
13123;DHT22;6627;50.920;12.050;2022-11-20T11:08:35;-0.50;99.90
13123;DHT22;6627;50.920;12.050;2022-11-20T11:11:17;-0.50;99.90
13123;DHT22;6627;50.920;12.050;2022-11-20T11:13:48;-0.50;99.90
13123;DHT22;6627;50.920;12.050;2022-11-20T11:16:20;-0.50;99.90
13123;DHT22;6627;50.920;12.050;2022-11-20T11:18:51;-0.40;99.90
13123;DHT22;6627;50.920;12.050;2022-11-20T11:21:29;-0.40;99.90
13123;DHT22;6627;50.920;12.050;2022-11-20T11:23:59;-0.40;99.90
13123;DHT22;6627;50.920;12.050;2022-11-20T11:26:34;-0.30;99.90
13123;DHT22;6627;50.920;12.050;2022-11-20T11:29:02;-0.30;99.90
13123;DHT22;6627;50.920;12.050;2022-11-20T11:31:32;-0.30;99.90
13123;DHT22;6627;50.920;12.050;2022-11-20T11:34:07;-0.30;99.90
13123;DHT22;6627;50.920;12.050;2022-11-20T11:36:38;-0.30;99.90
13123;DHT22;6627;50.920;12.050;2022-11-20T11:39:10;-0.20;99.90
13123;DHT22;6627;50.920;12.050;2022-11-20T11:41:41;-0.20;99.90
13123;DHT22;6627;50.920;12.050;2022-11-20T11:44:16;-0.20;99.90
13123;DHT22;6627;50.920;12.050;2022-11-20T11:47:04;-0.20;99.90
13123;DHT22;6627;50.920;12.050;2022-11-20T11:49:36;-0.10;99.90
13123;DHT22;6627;50.920;12.050;2022-11-20T11:52:10;0.00;99.90
13123;DHT22;6627;50.920;12.050;2022-11-20T11:54:47;0.00;99.90
13123;DHT22;6627;50.920;12.050;2022-11-20T11:57:26;0.10;99.90
13123;DHT22;6627;50.920;12.050;2022-11-20T12:00:03;0.10;99.90
13123;DHT22;6627;50.920;12.050;2022-11-20T12:02:37;0.20;99.90
13123;DHT22;6627;50.920;12.050;2022-11-20T12:05:24;0.20;99.90
13123;DHT22;6627;50.920;12.050;2022-11-20T12:07:57;0.30;99.90
13123;DHT22;6627;50.920;12.050;2022-11-20T12:10:40;0.30;99.90
13123;DHT22;6627;50.920;12.050;2022-11-20T12:13:20;0.30;99.90
13123;DHT22;6627;50.920;12.050;2022-11-20T12:15:53;0.40;99.90
13123;DHT22;6627;50.920;12.050;2022-11-20T12:18:22;0.40;99.90
13123;DHT22;6627;50.920;12.050;2022-11-20T12:21:03;0.50;99.90
13123;DHT22;6627;50.920;12.050;2022-11-20T12:23:53;0.50;99.90
13123;DHT22;6627;50.920;12.050;2022-11-20T12:26:46;0.50;99.90
13123;DHT22;6627;50.920;12.050;2022-11-20T12:29:34;0.50;99.90
13123;DHT22;6627;50.920;12.050;2022-11-20T12:32:41;0.60;99.90
13123;DHT22;6627;50.920;12.050;2022-11-20T12:35:44;0.70;99.90
13123;DHT22;6627;50.920;12.050;2022-11-20T12:38:45;0.70;99.90
13123;DHT22;6627;50.920;12.050;2022-11-20T12:41:46;0.70;99.90
13123;DHT22;6627;50.920;12.050;2022-11-20T12:44:57;0.80;99.90
13123;DHT22;6627;50.920;12.050;2022-11-20T12:47:53;0.80;99.90
13123;DHT22;6627;50.920;12.050;2022-11-20T12:50:38;0.90;99.90
13123;DHT22;6627;50.920;12.050;2022-11-20T12:53:22;0.90;99.90
13123;DHT22;6627;50.920;12.050;2022-11-20T12:56:03;0.90;99.90
13123;DHT22;6627;50.920;12.050;2022-11-20T12:58:43;0.90;99.90
13123;DHT22;6627;50.920;12.050;2022-11-20T13:01:25;0.90;99.90
13123;DHT22;6627;50.920;12.050;2022-11-20T13:04:22;0.90;99.90
13123;DHT22;6627;50.920;12.050;2022-11-20T13:07:02;0.90;99.90
13123;DHT22;6627;50.920;12.050;2022-11-20T13:09:33;0.80;99.90
13123;DHT22;6627;50.920;12.050;2022-11-20T13:12:15;0.80;99.90
13123;DHT22;6627;50.920;12.050;2022-11-20T13:14:53;0.80;99.90
13123;DHT22;6627;50.920;12.050;2022-11-20T13:17:36;0.80;99.90
13123;DHT22;6627;50.920;12.050;2022-11-20T13:20:14;0.80;99.90
13123;DHT22;6627;50.920;12.050;2022-11-20T13:22:46;0.80;99.90
13123;DHT22;6627;50.920;12.050;2022-11-20T13:25:25;0.80;99.90
13123;DHT22;6627;50.920;12.050;2022-11-20T13:27:57;0.70;99.90
13123;DHT22;6627;50.920;12.050;2022-11-20T13:30:27;0.70;99.90
13123;DHT22;6627;50.920;12.050;2022-11-20T13:32:59;0.80;99.90
13123;DHT22;6627;50.920;12.050;2022-11-20T13:35:35;0.80;99.90
13123;DHT22;6627;50.920;12.050;2022-11-20T13:38:08;0.80;99.90
13123;DHT22;6627;50.920;12.050;2022-11-20T13:40:38;0.90;99.90
13123;DHT22;6627;50.920;12.050;2022-11-20T13:43:28;0.90;99.90
13123;DHT22;6627;50.920;12.050;2022-11-20T13:46:03;0.90;99.90
13123;DHT22;6627;50.920;12.050;2022-11-20T13:48:33;0.90;99.90
13123;DHT22;6627;50.920;12.050;2022-11-20T13:51:15;1.00;99.90
13123;DHT22;6627;50.920;12.050;2022-11-20T13:54:31;1.00;99.90
13123;DHT22;6627;50.920;12.050;2022-11-20T14:00:43;1.10;99.90
13123;DHT22;6627;50.920;12.050;2022-11-20T14:03:18;1.00;99.90
13123;DHT22;6627;50.920;12.050;2022-11-20T14:05:52;1.00;99.90
13123;DHT22;6627;50.920;12.050;2022-11-20T14:08:30;0.90;99.90
13123;DHT22;6627;50.920;12.050;2022-11-20T14:11:14;0.90;99.90
13123;DHT22;6627;50.920;12.050;2022-11-20T14:14:00;0.90;99.90
13123;DHT22;6627;50.920;12.050;2022-11-20T14:16:33;0.80;99.90
13123;DHT22;6627;50.920;12.050;2022-11-20T14:19:21;0.80;99.90
13123;DHT22;6627;50.920;12.050;2022-11-20T14:21:54;0.90;99.90
13123;DHT22;6627;50.920;12.050;2022-11-20T14:24:34;0.90;99.90
13123;DHT22;6627;50.920;12.050;2022-11-20T14:27:02;0.90;99.90
13123;DHT22;6627;50.920;12.050;2022-11-20T14:29:34;0.80;99.90
13123;DHT22;6627;50.920;12.050;2022-11-20T14:32:04;0.80;99.90
13123;DHT22;6627;50.920;12.050;2022-11-20T14:34:37;0.80;99.90
13123;DHT22;6627;50.920;12.050;2022-11-20T14:37:11;0.80;99.90
13123;DHT22;6627;50.920;12.050;2022-11-20T14:39:42;0.90;99.90
13123;DHT22;6627;50.920;12.050;2022-11-20T14:42:17;0.90;99.90
13123;DHT22;6627;50.920;12.050;2022-11-20T14:44:47;0.80;99.90
13123;DHT22;6627;50.920;12.050;2022-11-20T14:47:21;0.80;99.90
13123;DHT22;6627;50.920;12.050;2022-11-20T14:49:52;0.80;99.90
13123;DHT22;6627;50.920;12.050;2022-11-20T14:52:23;0.60;99.90
13123;DHT22;6627;50.920;12.050;2022-11-20T14:54:52;0.50;99.90
13123;DHT22;6627;50.920;12.050;2022-11-20T14:57:24;0.40;99.90
13123;DHT22;6627;50.920;12.050;2022-11-20T15:00:05;0.30;99.90
13123;DHT22;6627;50.920;12.050;2022-11-20T15:02:41;0.00;99.90
13123;DHT22;6627;50.920;12.050;2022-11-20T15:05:15;-0.10;99.90
13123;DHT22;6627;50.920;12.050;2022-11-20T15:07:52;-0.20;99.90
13123;DHT22;6627;50.920;12.050;2022-11-20T15:10:33;-0.20;99.90
13123;DHT22;6627;50.920;12.050;2022-11-20T15:13:03;-0.40;99.90
13123;DHT22;6627;50.920;12.050;2022-11-20T15:18:12;-0.30;99.90
13123;DHT22;6627;50.920;12.050;2022-11-20T15:20:42;-0.30;99.90
13123;DHT22;6627;50.920;12.050;2022-11-20T15:23:12;-0.40;99.90
13123;DHT22;6627;50.920;12.050;2022-11-20T15:25:41;-0.30;99.90
13123;DHT22;6627;50.920;12.050;2022-11-20T15:28:16;-0.20;99.90
13123;DHT22;6627;50.920;12.050;2022-11-20T15:30:47;-0.10;99.90
13123;DHT22;6627;50.920;12.050;2022-11-20T15:33:17;-0.10;99.90
13123;DHT22;6627;50.920;12.050;2022-11-20T15:35:45;-0.20;99.90
13123;DHT22;6627;50.920;12.050;2022-11-20T15:38:13;-0.20;99.90
13123;DHT22;6627;50.920;12.050;2022-11-20T15:40:40;-0.10;99.90
13123;DHT22;6627;50.920;12.050;2022-11-20T15:43:07;-0.40;99.90
13123;DHT22;6627;50.920;12.050;2022-11-20T15:45:38;-0.50;99.90
13123;DHT22;6627;50.920;12.050;2022-11-20T15:48:10;-0.70;99.90
13123;DHT22;6627;50.920;12.050;2022-11-20T15:50:46;-0.80;99.90
13123;DHT22;6627;50.920;12.050;2022-11-20T15:53:18;-0.80;99.90
13123;DHT22;6627;50.920;12.050;2022-11-20T15:55:46;-0.80;99.90
13123;DHT22;6627;50.920;12.050;2022-11-20T15:58:13;-0.80;99.90
13123;DHT22;6627;50.920;12.050;2022-11-20T16:00:43;-0.90;99.90
13123;DHT22;6627;50.920;12.050;2022-11-20T16:03:11;-0.80;99.90
13123;DHT22;6627;50.920;12.050;2022-11-20T16:05:40;-0.90;99.90
13123;DHT22;6627;50.920;12.050;2022-11-20T16:08:08;-1.00;99.90
13123;DHT22;6627;50.920;12.050;2022-11-20T16:10:36;-1.10;99.90
13123;DHT22;6627;50.920;12.050;2022-11-20T16:13:12;-1.20;99.90
13123;DHT22;6627;50.920;12.050;2022-11-20T16:15:59;-1.20;99.90
13123;DHT22;6627;50.920;12.050;2022-11-20T16:18:31;-1.20;99.90
13123;DHT22;6627;50.920;12.050;2022-11-20T16:21:00;-1.30;99.90
13123;DHT22;6627;50.920;12.050;2022-11-20T16:23:29;-1.40;99.90
13123;DHT22;6627;50.920;12.050;2022-11-20T16:25:56;-1.40;99.90
13123;DHT22;6627;50.920;12.050;2022-11-20T16:28:24;-1.40;99.90
13123;DHT22;6627;50.920;12.050;2022-11-20T16:30:52;-1.40;99.90
13123;DHT22;6627;50.920;12.050;2022-11-20T16:33:20;-1.40;99.90
13123;DHT22;6627;50.920;12.050;2022-11-20T16:35:47;-1.50;99.90
13123;DHT22;6627;50.920;12.050;2022-11-20T16:38:16;-1.50;99.90
13123;DHT22;6627;50.920;12.050;2022-11-20T16:40:43;-1.60;99.90
13123;DHT22;6627;50.920;12.050;2022-11-20T16:43:13;-1.50;99.90
13123;DHT22;6627;50.920;12.050;2022-11-20T16:45:42;-1.50;99.90
13123;DHT22;6627;50.920;12.050;2022-11-20T16:48:12;-1.60;99.90
13123;DHT22;6627;50.920;12.050;2022-11-20T16:50:49;-1.60;99.90
13123;DHT22;6627;50.920;12.050;2022-11-20T16:53:19;-1.60;99.90
13123;DHT22;6627;50.920;12.050;2022-11-20T16:55:48;-1.50;99.90
13123;DHT22;6627;50.920;12.050;2022-11-20T16:58:17;-1.60;99.90
13123;DHT22;6627;50.920;12.050;2022-11-20T17:00:44;-1.70;99.90
13123;DHT22;6627;50.920;12.050;2022-11-20T17:03:13;-1.60;99.90
13123;DHT22;6627;50.920;12.050;2022-11-20T17:05:42;-1.50;99.90
13123;DHT22;6627;50.920;12.050;2022-11-20T17:08:09;-1.50;99.90
13123;DHT22;6627;50.920;12.050;2022-11-20T17:10:41;-1.70;99.90
13123;DHT22;6627;50.920;12.050;2022-11-20T17:13:08;-1.90;99.90
13123;DHT22;6627;50.920;12.050;2022-11-20T17:15:36;-1.90;99.90
13123;DHT22;6627;50.920;12.050;2022-11-20T17:18:04;-2.00;99.90
13123;DHT22;6627;50.920;12.050;2022-11-20T17:20:31;-2.00;99.90
13123;DHT22;6627;50.920;12.050;2022-11-20T17:22:58;-2.00;99.90
13123;DHT22;6627;50.920;12.050;2022-11-20T17:25:26;-2.00;99.90
13123;DHT22;6627;50.920;12.050;2022-11-20T17:27:56;-2.00;99.90
13123;DHT22;6627;50.920;12.050;2022-11-20T17:30:24;-1.90;99.90
13123;DHT22;6627;50.920;12.050;2022-11-20T17:32:52;-1.90;99.90
13123;DHT22;6627;50.920;12.050;2022-11-20T17:35:19;-1.90;99.90
13123;DHT22;6627;50.920;12.050;2022-11-20T17:37:46;-1.90;99.90
13123;DHT22;6627;50.920;12.050;2022-11-20T17:40:14;-1.80;99.90
13123;DHT22;6627;50.920;12.050;2022-11-20T17:42:42;-1.80;99.90
13123;DHT22;6627;50.920;12.050;2022-11-20T17:45:10;-1.90;99.90
13123;DHT22;6627;50.920;12.050;2022-11-20T17:47:38;-1.80;99.90
13123;DHT22;6627;50.920;12.050;2022-11-20T17:50:06;-1.70;99.90
13123;DHT22;6627;50.920;12.050;2022-11-20T17:52:34;-1.70;99.90
13123;DHT22;6627;50.920;12.050;2022-11-20T17:55:01;-1.70;99.90
13123;DHT22;6627;50.920;12.050;2022-11-20T17:57:28;-1.60;99.90
13123;DHT22;6627;50.920;12.050;2022-11-20T18:00:16;-1.60;99.90
13123;DHT22;6627;50.920;12.050;2022-11-20T18:02:43;-1.50;99.90
13123;DHT22;6627;50.920;12.050;2022-11-20T18:05:11;-1.50;99.90
13123;DHT22;6627;50.920;12.050;2022-11-20T18:07:38;-1.40;99.90
13123;DHT22;6627;50.920;12.050;2022-11-20T18:10:07;-1.30;99.90
13123;DHT22;6627;50.920;12.050;2022-11-20T18:12:35;-1.30;99.90
13123;DHT22;6627;50.920;12.050;2022-11-20T18:15:02;-1.20;99.90
13123;DHT22;6627;50.920;12.050;2022-11-20T18:17:31;-1.10;99.90
13123;DHT22;6627;50.920;12.050;2022-11-20T18:20:00;-1.10;99.90
13123;DHT22;6627;50.920;12.050;2022-11-20T18:22:27;-1.10;99.90
13123;DHT22;6627;50.920;12.050;2022-11-20T18:24:54;-1.00;99.90
13123;DHT22;6627;50.920;12.050;2022-11-20T18:27:21;-1.00;99.90
13123;DHT22;6627;50.920;12.050;2022-11-20T18:29:49;-1.00;99.90
13123;DHT22;6627;50.920;12.050;2022-11-20T18:35:04;-1.00;99.90
13123;DHT22;6627;50.920;12.050;2022-11-20T18:37:32;-1.00;99.90
13123;DHT22;6627;50.920;12.050;2022-11-20T18:39:59;-1.00;99.90
13123;DHT22;6627;50.920;12.050;2022-11-20T18:42:27;-0.90;99.90
13123;DHT22;6627;50.920;12.050;2022-11-20T18:45:12;-0.80;99.90
13123;DHT22;6627;50.920;12.050;2022-11-20T18:47:40;-0.80;99.90
13123;DHT22;6627;50.920;12.050;2022-11-20T18:50:10;-0.80;99.90
13123;DHT22;6627;50.920;12.050;2022-11-20T18:52:39;-0.80;99.90
13123;DHT22;6627;50.920;12.050;2022-11-20T18:55:09;-0.90;99.90
13123;DHT22;6627;50.920;12.050;2022-11-20T18:57:37;-1.00;99.90
13123;DHT22;6627;50.920;12.050;2022-11-20T19:00:06;-0.90;99.90
13123;DHT22;6627;50.920;12.050;2022-11-20T19:02:34;-0.90;99.90
13123;DHT22;6627;50.920;12.050;2022-11-20T19:05:02;-0.80;99.90
13123;DHT22;6627;50.920;12.050;2022-11-20T19:07:32;-0.70;99.90
13123;DHT22;6627;50.920;12.050;2022-11-20T19:09:59;-0.70;99.90
13123;DHT22;6627;50.920;12.050;2022-11-20T19:12:26;-0.70;99.90
13123;DHT22;6627;50.920;12.050;2022-11-20T19:14:54;-0.80;99.90
13123;DHT22;6627;50.920;12.050;2022-11-20T19:17:21;-0.80;99.90
13123;DHT22;6627;50.920;12.050;2022-11-20T19:19:49;-0.70;99.90
13123;DHT22;6627;50.920;12.050;2022-11-20T19:22:17;-0.80;99.90
13123;DHT22;6627;50.920;12.050;2022-11-20T19:24:46;-0.70;99.90
13123;DHT22;6627;50.920;12.050;2022-11-20T19:27:13;-0.80;99.90
13123;DHT22;6627;50.920;12.050;2022-11-20T19:29:40;-0.70;99.90
13123;DHT22;6627;50.920;12.050;2022-11-20T19:32:08;-0.70;99.90
13123;DHT22;6627;50.920;12.050;2022-11-20T19:34:35;-0.60;99.90
13123;DHT22;6627;50.920;12.050;2022-11-20T19:37:02;-0.50;99.90
13123;DHT22;6627;50.920;12.050;2022-11-20T19:39:30;-0.50;99.90
13123;DHT22;6627;50.920;12.050;2022-11-20T19:41:58;-0.60;99.90
13123;DHT22;6627;50.920;12.050;2022-11-20T19:44:26;-0.50;99.90
13123;DHT22;6627;50.920;12.050;2022-11-20T19:46:53;-0.50;99.90
13123;DHT22;6627;50.920;12.050;2022-11-20T19:49:22;-0.50;99.90
13123;DHT22;6627;50.920;12.050;2022-11-20T19:51:49;-0.50;99.90
13123;DHT22;6627;50.920;12.050;2022-11-20T19:54:17;-0.50;99.90
13123;DHT22;6627;50.920;12.050;2022-11-20T19:56:44;-0.40;99.90
13123;DHT22;6627;50.920;12.050;2022-11-20T19:59:15;-0.40;99.90
13123;DHT22;6627;50.920;12.050;2022-11-20T20:01:42;-0.40;99.90
13123;DHT22;6627;50.920;12.050;2022-11-20T20:04:10;-0.30;99.90
13123;DHT22;6627;50.920;12.050;2022-11-20T20:06:37;-0.20;99.90
13123;DHT22;6627;50.920;12.050;2022-11-20T20:09:07;-0.20;99.90
13123;DHT22;6627;50.920;12.050;2022-11-20T20:11:36;-0.20;99.90
13123;DHT22;6627;50.920;12.050;2022-11-20T20:14:06;-0.20;99.90
13123;DHT22;6627;50.920;12.050;2022-11-20T20:16:35;-0.20;99.90
13123;DHT22;6627;50.920;12.050;2022-11-20T20:19:04;-0.20;99.90
13123;DHT22;6627;50.920;12.050;2022-11-20T20:21:32;-0.10;99.90
13123;DHT22;6627;50.920;12.050;2022-11-20T20:24:03;-0.10;99.90
13123;DHT22;6627;50.920;12.050;2022-11-20T20:26:31;-0.10;99.90
13123;DHT22;6627;50.920;12.050;2022-11-20T20:29:00;-0.10;99.90
13123;DHT22;6627;50.920;12.050;2022-11-20T20:31:30;-0.10;99.90
13123;DHT22;6627;50.920;12.050;2022-11-20T20:34:01;-0.10;99.90
13123;DHT22;6627;50.920;12.050;2022-11-20T20:36:30;0.00;99.90
13123;DHT22;6627;50.920;12.050;2022-11-20T20:38:58;-0.10;99.90
13123;DHT22;6627;50.920;12.050;2022-11-20T20:41:27;-0.10;99.90
13123;DHT22;6627;50.920;12.050;2022-11-20T20:43:54;0.00;99.90
13123;DHT22;6627;50.920;12.050;2022-11-20T20:46:39;0.00;99.90
13123;DHT22;6627;50.920;12.050;2022-11-20T20:49:08;0.10;99.90
13123;DHT22;6627;50.920;12.050;2022-11-20T20:51:36;0.10;99.90
13123;DHT22;6627;50.920;12.050;2022-11-20T20:54:04;0.10;99.90
13123;DHT22;6627;50.920;12.050;2022-11-20T20:56:31;0.20;99.90
13123;DHT22;6627;50.920;12.050;2022-11-20T20:58:59;0.20;99.90
13123;DHT22;6627;50.920;12.050;2022-11-20T21:01:27;0.20;99.90
13123;DHT22;6627;50.920;12.050;2022-11-20T21:03:55;0.20;99.90
13123;DHT22;6627;50.920;12.050;2022-11-20T21:06:24;0.20;99.90
13123;DHT22;6627;50.920;12.050;2022-11-20T21:08:52;0.30;99.90
13123;DHT22;6627;50.920;12.050;2022-11-20T21:11:20;0.30;99.90
13123;DHT22;6627;50.920;12.050;2022-11-20T21:13:48;0.30;99.90
13123;DHT22;6627;50.920;12.050;2022-11-20T21:16:17;0.30;99.90
13123;DHT22;6627;50.920;12.050;2022-11-20T21:18:47;0.30;99.90
13123;DHT22;6627;50.920;12.050;2022-11-20T21:21:16;0.40;99.90
13123;DHT22;6627;50.920;12.050;2022-11-20T21:24:03;0.40;99.90
13123;DHT22;6627;50.920;12.050;2022-11-20T21:26:30;0.50;99.90
13123;DHT22;6627;50.920;12.050;2022-11-20T21:28:58;0.50;99.90
13123;DHT22;6627;50.920;12.050;2022-11-20T21:31:25;0.60;99.90
13123;DHT22;6627;50.920;12.050;2022-11-20T21:33:55;0.60;99.90
13123;DHT22;6627;50.920;12.050;2022-11-20T21:36:24;0.60;99.90
13123;DHT22;6627;50.920;12.050;2022-11-20T21:38:53;0.50;99.90
13123;DHT22;6627;50.920;12.050;2022-11-20T21:41:25;0.50;99.90
13123;DHT22;6627;50.920;12.050;2022-11-20T21:43:55;0.50;99.90
13123;DHT22;6627;50.920;12.050;2022-11-20T21:46:25;0.50;99.90
13123;DHT22;6627;50.920;12.050;2022-11-20T21:48:53;0.60;99.90
13123;DHT22;6627;50.920;12.050;2022-11-20T21:51:21;0.60;99.90
13123;DHT22;6627;50.920;12.050;2022-11-20T21:53:51;0.70;99.90
13123;DHT22;6627;50.920;12.050;2022-11-20T21:56:23;0.70;99.90
13123;DHT22;6627;50.920;12.050;2022-11-20T21:58:53;0.70;99.90
13123;DHT22;6627;50.920;12.050;2022-11-20T22:01:24;0.70;99.90
13123;DHT22;6627;50.920;12.050;2022-11-20T22:03:53;0.70;99.90
13123;DHT22;6627;50.920;12.050;2022-11-20T22:06:22;0.70;99.90
13123;DHT22;6627;50.920;12.050;2022-11-20T22:08:50;0.70;99.90
13123;DHT22;6627;50.920;12.050;2022-11-20T22:11:19;0.70;99.90
13123;DHT22;6627;50.920;12.050;2022-11-20T22:13:48;0.70;99.90
13123;DHT22;6627;50.920;12.050;2022-11-20T22:16:34;0.70;99.90
13123;DHT22;6627;50.920;12.050;2022-11-20T22:19:02;0.70;99.90
13123;DHT22;6627;50.920;12.050;2022-11-20T22:21:31;0.70;99.90
13123;DHT22;6627;50.920;12.050;2022-11-20T22:24:00;0.80;99.90
13123;DHT22;6627;50.920;12.050;2022-11-20T22:26:29;0.80;99.90